sensor_id;sensor_type;location;lat;lon;timestamp;P1;durP1;ratioP1;P2;durP2;ratioP2
19923;SDS011;10124;53.068;18.224;2023-01-30T00:01:06;34.73;;;23.20;;
19923;SDS011;10124;53.068;18.224;2023-01-30T00:03:40;36.90;;;25.83;;
19923;SDS011;10124;53.068;18.224;2023-01-30T00:06:08;34.87;;;24.83;;
19923;SDS011;10124;53.068;18.224;2023-01-30T00:08:37;31.20;;;22.63;;
19923;SDS011;10124;53.068;18.224;2023-01-30T00:11:05;35.23;;;25.57;;
19923;SDS011;10124;53.068;18.224;2023-01-30T00:13:33;38.23;;;24.80;;
19923;SDS011;10124;53.068;18.224;2023-01-30T00:16:01;31.03;;;22.63;;
19923;SDS011;10124;53.068;18.224;2023-01-30T00:18:29;37.13;;;24.70;;
19923;SDS011;10124;53.068;18.224;2023-01-30T00:20:58;31.90;;;23.63;;
19923;SDS011;10124;53.068;18.224;2023-01-30T00:23:26;33.80;;;23.33;;
19923;SDS011;10124;53.068;18.224;2023-01-30T00:25:54;32.40;;;24.47;;
19923;SDS011;10124;53.068;18.224;2023-01-30T00:28:22;31.83;;;23.27;;
19923;SDS011;10124;53.068;18.224;2023-01-30T00:30:53;35.67;;;24.60;;
19923;SDS011;10124;53.068;18.224;2023-01-30T00:33:23;35.47;;;23.93;;
19923;SDS011;10124;53.068;18.224;2023-01-30T00:35:51;34.93;;;23.57;;
19923;SDS011;10124;53.068;18.224;2023-01-30T00:38:20;33.70;;;23.53;;
19923;SDS011;10124;53.068;18.224;2023-01-30T00:40:48;34.40;;;24.53;;
19923;SDS011;10124;53.068;18.224;2023-01-30T00:43:17;34.13;;;24.10;;
19923;SDS011;10124;53.068;18.224;2023-01-30T00:46:04;33.70;;;24.43;;
19923;SDS011;10124;53.068;18.224;2023-01-30T00:48:52;34.57;;;24.37;;
19923;SDS011;10124;53.068;18.224;2023-01-30T00:51:19;36.97;;;23.93;;
19923;SDS011;10124;53.068;18.224;2023-01-30T00:53:47;33.93;;;23.30;;
19923;SDS011;10124;53.068;18.224;2023-01-30T00:56:15;34.37;;;25.63;;
19923;SDS011;10124;53.068;18.224;2023-01-30T00:58:43;33.80;;;24.43;;
19923;SDS011;10124;53.068;18.224;2023-01-30T01:01:11;36.40;;;25.60;;
19923;SDS011;10124;53.068;18.224;2023-01-30T01:03:39;36.00;;;24.63;;
19923;SDS011;10124;53.068;18.224;2023-01-30T01:06:07;32.70;;;23.60;;
19923;SDS011;10124;53.068;18.224;2023-01-30T01:08:35;35.93;;;25.07;;
19923;SDS011;10124;53.068;18.224;2023-01-30T01:11:03;32.10;;;23.97;;
19923;SDS011;10124;53.068;18.224;2023-01-30T01:13:32;34.53;;;24.13;;
19923;SDS011;10124;53.068;18.224;2023-01-30T01:15:59;32.30;;;23.03;;
19923;SDS011;10124;53.068;18.224;2023-01-30T01:18:28;32.03;;;22.20;;
19923;SDS011;10124;53.068;18.224;2023-01-30T01:20:56;35.07;;;23.67;;
19923;SDS011;10124;53.068;18.224;2023-01-30T01:23:26;35.83;;;24.77;;
19923;SDS011;10124;53.068;18.224;2023-01-30T01:25:54;35.17;;;24.10;;
19923;SDS011;10124;53.068;18.224;2023-01-30T01:28:21;34.33;;;24.23;;
19923;SDS011;10124;53.068;18.224;2023-01-30T01:30:49;29.83;;;22.33;;
19923;SDS011;10124;53.068;18.224;2023-01-30T01:33:17;34.47;;;24.53;;
19923;SDS011;10124;53.068;18.224;2023-01-30T01:35:45;33.83;;;24.30;;
19923;SDS011;10124;53.068;18.224;2023-01-30T01:38:15;32.57;;;23.43;;
19923;SDS011;10124;53.068;18.224;2023-01-30T01:40:44;37.60;;;25.93;;
19923;SDS011;10124;53.068;18.224;2023-01-30T01:44:19;32.70;;;23.83;;
19923;SDS011;10124;53.068;18.224;2023-01-30T01:46:22;41.17;;;25.40;;
19923;SDS011;10124;53.068;18.224;2023-01-30T01:48:52;35.17;;;25.70;;
19923;SDS011;10124;53.068;18.224;2023-01-30T01:51:24;37.60;;;25.90;;
19923;SDS011;10124;53.068;18.224;2023-01-30T01:53:55;38.93;;;24.50;;
19923;SDS011;10124;53.068;18.224;2023-01-30T01:56:25;35.13;;;25.23;;
19923;SDS011;10124;53.068;18.224;2023-01-30T01:58:54;34.40;;;24.77;;
19923;SDS011;10124;53.068;18.224;2023-01-30T02:01:23;35.33;;;23.73;;
19923;SDS011;10124;53.068;18.224;2023-01-30T02:03:53;34.70;;;24.00;;
19923;SDS011;10124;53.068;18.224;2023-01-30T02:06:24;38.33;;;26.30;;
19923;SDS011;10124;53.068;18.224;2023-01-30T02:08:53;34.90;;;24.33;;
19923;SDS011;10124;53.068;18.224;2023-01-30T02:11:28;35.90;;;25.73;;
19923;SDS011;10124;53.068;18.224;2023-01-30T02:13:57;36.63;;;25.27;;
19923;SDS011;10124;53.068;18.224;2023-01-30T02:16:26;36.17;;;25.70;;
19923;SDS011;10124;53.068;18.224;2023-01-30T02:18:53;35.03;;;23.87;;
19923;SDS011;10124;53.068;18.224;2023-01-30T02:37:35;28.73;;;21.00;;
19923;SDS011;10124;53.068;18.224;2023-01-30T02:40:22;30.83;;;21.87;;
19923;SDS011;10124;53.068;18.224;2023-01-30T02:42:58;29.30;;;20.70;;
19923;SDS011;10124;53.068;18.224;2023-01-30T02:45:35;31.63;;;21.87;;
19923;SDS011;10124;53.068;18.224;2023-01-30T02:48:06;32.17;;;22.53;;
19923;SDS011;10124;53.068;18.224;2023-01-30T02:50:44;29.70;;;20.13;;
19923;SDS011;10124;53.068;18.224;2023-01-30T02:53:14;28.83;;;20.83;;
19923;SDS011;10124;53.068;18.224;2023-01-30T02:55:42;28.97;;;20.77;;
19923;SDS011;10124;53.068;18.224;2023-01-30T02:58:10;30.37;;;21.53;;
19923;SDS011;10124;53.068;18.224;2023-01-30T03:01:02;30.83;;;20.57;;
19923;SDS011;10124;53.068;18.224;2023-01-30T03:06:42;27.90;;;19.67;;
19923;SDS011;10124;53.068;18.224;2023-01-30T03:09:19;30.70;;;21.27;;
19923;SDS011;10124;53.068;18.224;2023-01-30T03:14:23;28.43;;;20.50;;
19923;SDS011;10124;53.068;18.224;2023-01-30T03:16:54;32.03;;;21.00;;
19923;SDS011;10124;53.068;18.224;2023-01-30T03:19:23;28.23;;;19.60;;
19923;SDS011;10124;53.068;18.224;2023-01-30T03:21:51;27.93;;;19.63;;
19923;SDS011;10124;53.068;18.224;2023-01-30T03:24:19;26.83;;;19.93;;
19923;SDS011;10124;53.068;18.224;2023-01-30T03:26:48;28.50;;;19.67;;
19923;SDS011;10124;53.068;18.224;2023-01-30T03:29:18;25.50;;;19.37;;
19923;SDS011;10124;53.068;18.224;2023-01-30T03:31:47;29.80;;;19.43;;
19923;SDS011;10124;53.068;18.224;2023-01-30T03:34:14;28.30;;;19.73;;
19923;SDS011;10124;53.068;18.224;2023-01-30T03:36:42;28.37;;;19.47;;
19923;SDS011;10124;53.068;18.224;2023-01-30T03:39:10;25.63;;;18.77;;
19923;SDS011;10124;53.068;18.224;2023-01-30T03:41:38;28.33;;;20.23;;
19923;SDS011;10124;53.068;18.224;2023-01-30T03:44:06;27.37;;;19.47;;
19923;SDS011;10124;53.068;18.224;2023-01-30T03:46:35;27.53;;;18.23;;
19923;SDS011;10124;53.068;18.224;2023-01-30T03:49:02;26.50;;;18.73;;
19923;SDS011;10124;53.068;18.224;2023-01-30T03:51:31;27.63;;;18.53;;
19923;SDS011;10124;53.068;18.224;2023-01-30T03:54:00;25.33;;;18.13;;
19923;SDS011;10124;53.068;18.224;2023-01-30T03:56:29;24.63;;;17.87;;
19923;SDS011;10124;53.068;18.224;2023-01-30T03:58:56;29.17;;;18.13;;
19923;SDS011;10124;53.068;18.224;2023-01-30T04:01:33;27.83;;;18.57;;
19923;SDS011;10124;53.068;18.224;2023-01-30T04:04:02;26.93;;;19.53;;
19923;SDS011;10124;53.068;18.224;2023-01-30T04:06:30;28.03;;;18.73;;
19923;SDS011;10124;53.068;18.224;2023-01-30T04:08:57;28.83;;;18.87;;
19923;SDS011;10124;53.068;18.224;2023-01-30T04:11:39;28.13;;;19.30;;
19923;SDS011;10124;53.068;18.224;2023-01-30T04:14:07;28.40;;;18.90;;
19923;SDS011;10124;53.068;18.224;2023-01-30T04:16:44;31.00;;;19.27;;
19923;SDS011;10124;53.068;18.224;2023-01-30T04:19:30;28.13;;;19.20;;
19923;SDS011;10124;53.068;18.224;2023-01-30T04:21:58;27.70;;;19.60;;
19923;SDS011;10124;53.068;18.224;2023-01-30T04:24:27;28.77;;;19.70;;
19923;SDS011;10124;53.068;18.224;2023-01-30T04:26:55;29.00;;;20.07;;
19923;SDS011;10124;53.068;18.224;2023-01-30T04:29:25;31.63;;;19.63;;
19923;SDS011;10124;53.068;18.224;2023-01-30T04:31:54;28.60;;;20.40;;
19923;SDS011;10124;53.068;18.224;2023-01-30T04:34:25;27.00;;;18.77;;
19923;SDS011;10124;53.068;18.224;2023-01-30T04:36:53;29.67;;;21.03;;
19923;SDS011;10124;53.068;18.224;2023-01-30T04:39:21;27.73;;;19.87;;
19923;SDS011;10124;53.068;18.224;2023-01-30T04:41:50;28.60;;;19.03;;
19923;SDS011;10124;53.068;18.224;2023-01-30T04:44:18;34.20;;;19.77;;
19923;SDS011;10124;53.068;18.224;2023-01-30T04:46:57;28.80;;;19.23;;
19923;SDS011;10124;53.068;18.224;2023-01-30T04:49:25;29.70;;;18.77;;
19923;SDS011;10124;53.068;18.224;2023-01-30T04:51:53;27.77;;;18.97;;
19923;SDS011;10124;53.068;18.224;2023-01-30T04:54:21;29.20;;;19.53;;
19923;SDS011;10124;53.068;18.224;2023-01-30T04:56:50;31.37;;;19.20;;
19923;SDS011;10124;53.068;18.224;2023-01-30T04:59:17;29.30;;;20.50;;
19923;SDS011;10124;53.068;18.224;2023-01-30T05:01:48;29.13;;;19.53;;
19923;SDS011;10124;53.068;18.224;2023-01-30T05:04:16;28.13;;;19.33;;
19923;SDS011;10124;53.068;18.224;2023-01-30T05:06:44;30.93;;;20.03;;
19923;SDS011;10124;53.068;18.224;2023-01-30T05:09:12;28.70;;;19.00;;
19923;SDS011;10124;53.068;18.224;2023-01-30T05:11:40;26.47;;;18.63;;
19923;SDS011;10124;53.068;18.224;2023-01-30T05:14:08;31.50;;;21.53;;
19923;SDS011;10124;53.068;18.224;2023-01-30T05:16:36;32.80;;;20.30;;
19923;SDS011;10124;53.068;18.224;2023-01-30T05:19:04;32.67;;;21.07;;
19923;SDS011;10124;53.068;18.224;2023-01-30T05:21:32;28.37;;;19.73;;
19923;SDS011;10124;53.068;18.224;2023-01-30T05:24:00;31.40;;;21.00;;
19923;SDS011;10124;53.068;18.224;2023-01-30T05:26:28;28.43;;;20.13;;
19923;SDS011;10124;53.068;18.224;2023-01-30T05:28:57;32.13;;;19.50;;
19923;SDS011;10124;53.068;18.224;2023-01-30T05:31:25;28.90;;;19.47;;
19923;SDS011;10124;53.068;18.224;2023-01-30T05:33:53;28.87;;;19.30;;
19923;SDS011;10124;53.068;18.224;2023-01-30T05:36:22;27.67;;;18.80;;
19923;SDS011;10124;53.068;18.224;2023-01-30T05:38:51;30.60;;;19.50;;
19923;SDS011;10124;53.068;18.224;2023-01-30T05:41:19;31.17;;;21.47;;
19923;SDS011;10124;53.068;18.224;2023-01-30T05:43:48;33.80;;;20.47;;
19923;SDS011;10124;53.068;18.224;2023-01-30T05:46:16;28.70;;;20.23;;
19923;SDS011;10124;53.068;18.224;2023-01-30T05:48:44;33.53;;;21.97;;
19923;SDS011;10124;53.068;18.224;2023-01-30T05:51:13;32.27;;;21.17;;
19923;SDS011;10124;53.068;18.224;2023-01-30T05:53:42;29.27;;;18.53;;
19923;SDS011;10124;53.068;18.224;2023-01-30T05:56:09;29.73;;;20.50;;
19923;SDS011;10124;53.068;18.224;2023-01-30T05:58:37;29.20;;;19.43;;
19923;SDS011;10124;53.068;18.224;2023-01-30T06:01:06;26.97;;;19.70;;
19923;SDS011;10124;53.068;18.224;2023-01-30T06:03:35;31.33;;;21.70;;
19923;SDS011;10124;53.068;18.224;2023-01-30T06:06:04;28.87;;;19.80;;
19923;SDS011;10124;53.068;18.224;2023-01-30T06:08:32;34.83;;;22.97;;
19923;SDS011;10124;53.068;18.224;2023-01-30T06:11:05;36.83;;;24.13;;
19923;SDS011;10124;53.068;18.224;2023-01-30T06:13:34;32.50;;;21.63;;
19923;SDS011;10124;53.068;18.224;2023-01-30T06:16:03;26.60;;;19.33;;
19923;SDS011;10124;53.068;18.224;2023-01-30T06:18:31;30.10;;;20.57;;
19923;SDS011;10124;53.068;18.224;2023-01-30T06:20:59;26.50;;;18.90;;
19923;SDS011;10124;53.068;18.224;2023-01-30T06:23:27;29.00;;;20.10;;
19923;SDS011;10124;53.068;18.224;2023-01-30T06:25:55;31.20;;;20.60;;
19923;SDS011;10124;53.068;18.224;2023-01-30T06:28:23;32.23;;;20.97;;
19923;SDS011;10124;53.068;18.224;2023-01-30T06:30:52;29.20;;;19.27;;
19923;SDS011;10124;53.068;18.224;2023-01-30T06:33:20;29.70;;;20.13;;
19923;SDS011;10124;53.068;18.224;2023-01-30T06:35:48;30.40;;;21.13;;
19923;SDS011;10124;53.068;18.224;2023-01-30T06:38:17;28.00;;;19.10;;
19923;SDS011;10124;53.068;18.224;2023-01-30T06:40:47;26.90;;;18.27;;
19923;SDS011;10124;53.068;18.224;2023-01-30T06:43:15;29.13;;;19.80;;
19923;SDS011;10124;53.068;18.224;2023-01-30T06:45:43;26.23;;;18.27;;
19923;SDS011;10124;53.068;18.224;2023-01-30T06:48:11;26.17;;;19.30;;
19923;SDS011;10124;53.068;18.224;2023-01-30T06:50:39;24.37;;;18.07;;
19923;SDS011;10124;53.068;18.224;2023-01-30T06:53:07;24.50;;;17.87;;
19923;SDS011;10124;53.068;18.224;2023-01-30T06:55:35;29.17;;;20.33;;
19923;SDS011;10124;53.068;18.224;2023-01-30T06:58:05;32.50;;;20.73;;
19923;SDS011;10124;53.068;18.224;2023-01-30T07:00:34;28.67;;;19.83;;
19923;SDS011;10124;53.068;18.224;2023-01-30T07:03:02;32.33;;;22.03;;
19923;SDS011;10124;53.068;18.224;2023-01-30T07:05:30;38.37;;;22.80;;
19923;SDS011;10124;53.068;18.224;2023-01-30T07:07:59;35.47;;;23.37;;
19923;SDS011;10124;53.068;18.224;2023-01-30T07:10:27;32.03;;;22.03;;
19923;SDS011;10124;53.068;18.224;2023-01-30T07:12:58;32.73;;;20.43;;
19923;SDS011;10124;53.068;18.224;2023-01-30T07:15:26;36.57;;;23.57;;
19923;SDS011;10124;53.068;18.224;2023-01-30T07:17:54;34.97;;;24.07;;
19923;SDS011;10124;53.068;18.224;2023-01-30T07:20:22;35.63;;;22.33;;
19923;SDS011;10124;53.068;18.224;2023-01-30T07:22:50;35.67;;;24.90;;
19923;SDS011;10124;53.068;18.224;2023-01-30T07:25:20;36.90;;;24.43;;
19923;SDS011;10124;53.068;18.224;2023-01-30T07:27:49;34.93;;;23.53;;
19923;SDS011;10124;53.068;18.224;2023-01-30T07:30:17;34.83;;;23.13;;
19923;SDS011;10124;53.068;18.224;2023-01-30T07:32:52;36.90;;;25.03;;
19923;SDS011;10124;53.068;18.224;2023-01-30T07:35:21;38.47;;;25.50;;
19923;SDS011;10124;53.068;18.224;2023-01-30T07:37:49;35.27;;;23.97;;
19923;SDS011;10124;53.068;18.224;2023-01-30T07:40:18;39.37;;;24.83;;
19923;SDS011;10124;53.068;18.224;2023-01-30T07:45:28;40.43;;;27.53;;
19923;SDS011;10124;53.068;18.224;2023-01-30T07:47:56;41.50;;;26.37;;
19923;SDS011;10124;53.068;18.224;2023-01-30T07:50:24;37.13;;;24.87;;
19923;SDS011;10124;53.068;18.224;2023-01-30T07:52:52;39.53;;;27.13;;
19923;SDS011;10124;53.068;18.224;2023-01-30T07:55:20;43.57;;;25.57;;
19923;SDS011;10124;53.068;18.224;2023-01-30T07:57:47;39.13;;;26.30;;
19923;SDS011;10124;53.068;18.224;2023-01-30T08:00:15;36.60;;;23.90;;
19923;SDS011;10124;53.068;18.224;2023-01-30T08:02:44;41.20;;;25.77;;
19923;SDS011;10124;53.068;18.224;2023-01-30T08:05:12;36.37;;;23.70;;
19923;SDS011;10124;53.068;18.224;2023-01-30T08:07:40;35.57;;;24.73;;
19923;SDS011;10124;53.068;18.224;2023-01-30T08:10:08;40.67;;;26.17;;
19923;SDS011;10124;53.068;18.224;2023-01-30T08:12:38;37.00;;;23.97;;
19923;SDS011;10124;53.068;18.224;2023-01-30T08:15:07;34.37;;;23.10;;
19923;SDS011;10124;53.068;18.224;2023-01-30T08:17:36;32.30;;;22.87;;
19923;SDS011;10124;53.068;18.224;2023-01-30T08:20:04;33.90;;;23.60;;
19923;SDS011;10124;53.068;18.224;2023-01-30T08:22:32;34.20;;;23.70;;
19923;SDS011;10124;53.068;18.224;2023-01-30T08:25:00;34.93;;;22.67;;
19923;SDS011;10124;53.068;18.224;2023-01-30T08:27:28;36.20;;;23.00;;
19923;SDS011;10124;53.068;18.224;2023-01-30T08:29:56;32.00;;;21.70;;
19923;SDS011;10124;53.068;18.224;2023-01-30T08:32:24;32.00;;;21.00;;
19923;SDS011;10124;53.068;18.224;2023-01-30T08:34:52;43.13;;;25.73;;
19923;SDS011;10124;53.068;18.224;2023-01-30T08:37:22;56.37;;;28.27;;
19923;SDS011;10124;53.068;18.224;2023-01-30T08:39:50;35.73;;;22.50;;
19923;SDS011;10124;53.068;18.224;2023-01-30T08:42:19;41.03;;;24.50;;
19923;SDS011;10124;53.068;18.224;2023-01-30T08:44:48;32.20;;;22.13;;
19923;SDS011;10124;53.068;18.224;2023-01-30T08:47:18;50.73;;;26.53;;
19923;SDS011;10124;53.068;18.224;2023-01-30T08:49:47;36.83;;;24.60;;
19923;SDS011;10124;53.068;18.224;2023-01-30T08:52:18;52.63;;;30.27;;
19923;SDS011;10124;53.068;18.224;2023-01-30T08:54:53;46.00;;;27.77;;
19923;SDS011;10124;53.068;18.224;2023-01-30T08:57:24;41.90;;;26.13;;
19923;SDS011;10124;53.068;18.224;2023-01-30T08:59:52;37.50;;;24.57;;
19923;SDS011;10124;53.068;18.224;2023-01-30T09:02:20;37.63;;;24.43;;
19923;SDS011;10124;53.068;18.224;2023-01-30T09:04:48;41.40;;;26.53;;
19923;SDS011;10124;53.068;18.224;2023-01-30T09:07:16;39.87;;;25.10;;
19923;SDS011;10124;53.068;18.224;2023-01-30T09:09:45;55.07;;;28.63;;
19923;SDS011;10124;53.068;18.224;2023-01-30T09:12:14;51.50;;;26.23;;
19923;SDS011;10124;53.068;18.224;2023-01-30T09:14:42;45.47;;;25.43;;
19923;SDS011;10124;53.068;18.224;2023-01-30T09:17:10;38.23;;;25.47;;
19923;SDS011;10124;53.068;18.224;2023-01-30T09:19:38;43.10;;;27.30;;
19923;SDS011;10124;53.068;18.224;2023-01-30T09:22:06;37.73;;;24.27;;
19923;SDS011;10124;53.068;18.224;2023-01-30T09:24:34;41.07;;;26.27;;
19923;SDS011;10124;53.068;18.224;2023-01-30T09:27:02;38.60;;;25.07;;
19923;SDS011;10124;53.068;18.224;2023-01-30T09:29:30;37.00;;;23.37;;
19923;SDS011;10124;53.068;18.224;2023-01-30T09:31:58;46.23;;;27.03;;
19923;SDS011;10124;53.068;18.224;2023-01-30T09:34:26;42.47;;;25.13;;
19923;SDS011;10124;53.068;18.224;2023-01-30T09:36:55;41.33;;;23.67;;
19923;SDS011;10124;53.068;18.224;2023-01-30T09:39:24;40.03;;;24.60;;
19923;SDS011;10124;53.068;18.224;2023-01-30T09:42:10;48.30;;;28.23;;
19923;SDS011;10124;53.068;18.224;2023-01-30T09:47:13;33.87;;;23.53;;
19923;SDS011;10124;53.068;18.224;2023-01-30T09:52:30;40.07;;;24.47;;
19923;SDS011;10124;53.068;18.224;2023-01-30T09:55:15;37.23;;;24.10;;
19923;SDS011;10124;53.068;18.224;2023-01-30T09:57:44;39.57;;;24.47;;
19923;SDS011;10124;53.068;18.224;2023-01-30T10:00:16;38.33;;;23.53;;
19923;SDS011;10124;53.068;18.224;2023-01-30T10:02:49;34.13;;;21.50;;
19923;SDS011;10124;53.068;18.224;2023-01-30T10:05:18;27.27;;;19.00;;
19923;SDS011;10124;53.068;18.224;2023-01-30T10:08:08;34.90;;;22.47;;
19923;SDS011;10124;53.068;18.224;2023-01-30T10:10:47;34.90;;;22.30;;
19923;SDS011;10124;53.068;18.224;2023-01-30T10:22:15;43.30;;;25.10;;
19923;SDS011;10124;53.068;18.224;2023-01-30T10:28:16;40.00;;;25.40;;
19923;SDS011;10124;53.068;18.224;2023-01-30T10:30:46;40.33;;;25.23;;
19923;SDS011;10124;53.068;18.224;2023-01-30T10:33:23;42.07;;;26.67;;
19923;SDS011;10124;53.068;18.224;2023-01-30T10:36:02;45.87;;;27.30;;
19923;SDS011;10124;53.068;18.224;2023-01-30T10:38:44;40.90;;;24.07;;
19923;SDS011;10124;53.068;18.224;2023-01-30T10:41:19;43.70;;;26.77;;
19923;SDS011;10124;53.068;18.224;2023-01-30T10:43:58;46.30;;;27.77;;
19923;SDS011;10124;53.068;18.224;2023-01-30T10:49:21;38.77;;;25.77;;
19923;SDS011;10124;53.068;18.224;2023-01-30T10:59:29;42.20;;;25.67;;
19923;SDS011;10124;53.068;18.224;2023-01-30T11:04:50;41.63;;;25.57;;
19923;SDS011;10124;53.068;18.224;2023-01-30T11:07:24;42.53;;;26.50;;
19923;SDS011;10124;53.068;18.224;2023-01-30T11:09:54;38.40;;;24.17;;
19923;SDS011;10124;53.068;18.224;2023-01-30T11:12:24;38.00;;;24.23;;
19923;SDS011;10124;53.068;18.224;2023-01-30T11:17:20;41.67;;;25.17;;
19923;SDS011;10124;53.068;18.224;2023-01-30T11:19:53;32.63;;;21.53;;
19923;SDS011;10124;53.068;18.224;2023-01-30T11:22:23;37.37;;;22.90;;
19923;SDS011;10124;53.068;18.224;2023-01-30T11:27:58;32.17;;;20.70;;
19923;SDS011;10124;53.068;18.224;2023-01-30T11:30:34;33.43;;;20.03;;
19923;SDS011;10124;53.068;18.224;2023-01-30T11:33:10;32.53;;;19.57;;
19923;SDS011;10124;53.068;18.224;2023-01-30T11:35:41;29.10;;;17.73;;
19923;SDS011;10124;53.068;18.224;2023-01-30T11:38:12;31.73;;;20.33;;
19923;SDS011;10124;53.068;18.224;2023-01-30T11:40:48;39.13;;;21.57;;
19923;SDS011;10124;53.068;18.224;2023-01-30T11:43:16;31.77;;;20.03;;
19923;SDS011;10124;53.068;18.224;2023-01-30T11:45:45;36.67;;;20.13;;
19923;SDS011;10124;53.068;18.224;2023-01-30T11:48:19;33.63;;;19.03;;
19923;SDS011;10124;53.068;18.224;2023-01-30T11:51:19;27.57;;;16.13;;
19923;SDS011;10124;53.068;18.224;2023-01-30T11:53:57;25.57;;;16.07;;
19923;SDS011;10124;53.068;18.224;2023-01-30T11:56:35;18.77;;;13.10;;
19923;SDS011;10124;53.068;18.224;2023-01-30T12:01:43;27.53;;;15.17;;
19923;SDS011;10124;53.068;18.224;2023-01-30T12:04:12;22.13;;;13.77;;
19923;SDS011;10124;53.068;18.224;2023-01-30T12:06:42;21.33;;;14.47;;
19923;SDS011;10124;53.068;18.224;2023-01-30T12:20:45;25.10;;;14.60;;
19923;SDS011;10124;53.068;18.224;2023-01-30T12:31:13;22.07;;;13.50;;
19923;SDS011;10124;53.068;18.224;2023-01-30T12:33:52;17.07;;;11.77;;
19923;SDS011;10124;53.068;18.224;2023-01-30T12:39:04;27.50;;;15.07;;
19923;SDS011;10124;53.068;18.224;2023-01-30T12:45:10;18.93;;;12.70;;
19923;SDS011;10124;53.068;18.224;2023-01-30T12:52:55;17.80;;;11.40;;
19923;SDS011;10124;53.068;18.224;2023-01-30T13:02:26;15.77;;;8.83;;
19923;SDS011;10124;53.068;18.224;2023-01-30T13:13:55;17.50;;;8.73;;
19923;SDS011;10124;53.068;18.224;2023-01-30T13:22:36;14.10;;;6.80;;
19923;SDS011;10124;53.068;18.224;2023-01-30T13:31:13;12.80;;;7.70;;
19923;SDS011;10124;53.068;18.224;2023-01-30T13:33:46;11.97;;;7.23;;
19923;SDS011;10124;53.068;18.224;2023-01-30T13:36:26;14.50;;;6.77;;
19923;SDS011;10124;53.068;18.224;2023-01-30T13:39:11;11.73;;;5.90;;
19923;SDS011;10124;53.068;18.224;2023-01-30T13:41:48;7.27;;;4.33;;
19923;SDS011;10124;53.068;18.224;2023-01-30T13:44:26;11.93;;;6.27;;
19923;SDS011;10124;53.068;18.224;2023-01-30T13:47:10;10.67;;;5.57;;
19923;SDS011;10124;53.068;18.224;2023-01-30T13:49:52;12.07;;;5.57;;
19923;SDS011;10124;53.068;18.224;2023-01-30T13:52:36;11.57;;;5.90;;
19923;SDS011;10124;53.068;18.224;2023-01-30T13:57:46;15.07;;;6.37;;
19923;SDS011;10124;53.068;18.224;2023-01-30T14:00:51;17.87;;;7.50;;
19923;SDS011;10124;53.068;18.224;2023-01-30T14:03:24;10.40;;;5.30;;
19923;SDS011;10124;53.068;18.224;2023-01-30T14:05:59;11.93;;;5.23;;
19923;SDS011;10124;53.068;18.224;2023-01-30T14:11:28;14.23;;;5.90;;
19923;SDS011;10124;53.068;18.224;2023-01-30T14:14:05;10.20;;;5.47;;
19923;SDS011;10124;53.068;18.224;2023-01-30T14:16:47;14.00;;;6.27;;
19923;SDS011;10124;53.068;18.224;2023-01-30T14:19:41;13.07;;;5.37;;
19923;SDS011;10124;53.068;18.224;2023-01-30T14:22:23;16.67;;;8.10;;
19923;SDS011;10124;53.068;18.224;2023-01-30T14:32:59;9.17;;;4.93;;
19923;SDS011;10124;53.068;18.224;2023-01-30T14:35:32;13.67;;;5.13;;
19923;SDS011;10124;53.068;18.224;2023-01-30T14:40:39;14.57;;;5.57;;
19923;SDS011;10124;53.068;18.224;2023-01-30T14:45:59;8.77;;;4.63;;
19923;SDS011;10124;53.068;18.224;2023-01-30T14:51:24;8.60;;;5.67;;
19923;SDS011;10124;53.068;18.224;2023-01-30T15:07:44;17.27;;;8.43;;
19923;SDS011;10124;53.068;18.224;2023-01-30T15:13:03;15.27;;;7.80;;
19923;SDS011;10124;53.068;18.224;2023-01-30T15:24:41;13.97;;;7.23;;
19923;SDS011;10124;53.068;18.224;2023-01-30T15:32:26;11.50;;;6.60;;
19923;SDS011;10124;53.068;18.224;2023-01-30T15:34:56;12.87;;;7.10;;
19923;SDS011;10124;53.068;18.224;2023-01-30T15:37:38;14.23;;;6.70;;
19923;SDS011;10124;53.068;18.224;2023-01-30T15:45:30;8.43;;;5.30;;
19923;SDS011;10124;53.068;18.224;2023-01-30T15:50:28;10.43;;;5.77;;
19923;SDS011;10124;53.068;18.224;2023-01-30T15:52:55;13.70;;;5.63;;
19923;SDS011;10124;53.068;18.224;2023-01-30T15:55:27;14.13;;;6.67;;
19923;SDS011;10124;53.068;18.224;2023-01-30T15:58:12;14.13;;;7.20;;
19923;SDS011;10124;53.068;18.224;2023-01-30T16:00:45;17.83;;;5.20;;
19923;SDS011;10124;53.068;18.224;2023-01-30T16:03:25;13.17;;;6.23;;
19923;SDS011;10124;53.068;18.224;2023-01-30T16:05:58;10.97;;;5.67;;
19923;SDS011;10124;53.068;18.224;2023-01-30T16:08:27;13.53;;;6.90;;
19923;SDS011;10124;53.068;18.224;2023-01-30T16:10:55;10.50;;;5.10;;
19923;SDS011;10124;53.068;18.224;2023-01-30T16:13:24;11.87;;;6.30;;
19923;SDS011;10124;53.068;18.224;2023-01-30T16:18:28;14.27;;;5.90;;
19923;SDS011;10124;53.068;18.224;2023-01-30T16:20:59;13.70;;;5.70;;
19923;SDS011;10124;53.068;18.224;2023-01-30T16:23:33;11.63;;;5.30;;
19923;SDS011;10124;53.068;18.224;2023-01-30T16:26:02;9.67;;;5.07;;
19923;SDS011;10124;53.068;18.224;2023-01-30T16:28:33;9.17;;;4.67;;
19923;SDS011;10124;53.068;18.224;2023-01-30T16:31:05;10.23;;;5.17;;
19923;SDS011;10124;53.068;18.224;2023-01-30T16:33:34;11.67;;;6.47;;
19923;SDS011;10124;53.068;18.224;2023-01-30T16:38:41;17.30;;;7.40;;
19923;SDS011;10124;53.068;18.224;2023-01-30T16:49:43;17.77;;;7.00;;
19923;SDS011;10124;53.068;18.224;2023-01-30T16:52:03;17.67;;;6.87;;
19923;SDS011;10124;53.068;18.224;2023-01-30T16:54:53;19.00;;;7.97;;
19923;SDS011;10124;53.068;18.224;2023-01-30T17:02:46;11.97;;;4.70;;
19923;SDS011;10124;53.068;18.224;2023-01-30T17:05:30;16.60;;;6.27;;
19923;SDS011;10124;53.068;18.224;2023-01-30T17:08:04;8.87;;;4.90;;
19923;SDS011;10124;53.068;18.224;2023-01-30T17:18:52;11.47;;;5.33;;
19923;SDS011;10124;53.068;18.224;2023-01-30T17:21:23;17.53;;;9.50;;
19923;SDS011;10124;53.068;18.224;2023-01-30T17:23:59;12.60;;;7.20;;
19923;SDS011;10124;53.068;18.224;2023-01-30T17:26:30;9.23;;;6.07;;
19923;SDS011;10124;53.068;18.224;2023-01-30T17:28:59;18.27;;;8.43;;
19923;SDS011;10124;53.068;18.224;2023-01-30T17:31:28;13.03;;;6.13;;
19923;SDS011;10124;53.068;18.224;2023-01-30T17:33:58;13.93;;;7.10;;
19923;SDS011;10124;53.068;18.224;2023-01-30T17:36:27;14.17;;;6.80;;
19923;SDS011;10124;53.068;18.224;2023-01-30T17:38:56;13.67;;;6.10;;
19923;SDS011;10124;53.068;18.224;2023-01-30T17:41:26;10.23;;;6.73;;
19923;SDS011;10124;53.068;18.224;2023-01-30T17:43:58;15.73;;;6.70;;
19923;SDS011;10124;53.068;18.224;2023-01-30T17:46:35;10.83;;;7.00;;
19923;SDS011;10124;53.068;18.224;2023-01-30T17:49:22;10.30;;;6.43;;
19923;SDS011;10124;53.068;18.224;2023-01-30T17:51:50;10.87;;;6.90;;
19923;SDS011;10124;53.068;18.224;2023-01-30T17:54:19;13.67;;;7.20;;
19923;SDS011;10124;53.068;18.224;2023-01-30T17:56:59;18.27;;;7.30;;
19923;SDS011;10124;53.068;18.224;2023-01-30T17:59:28;10.47;;;6.83;;
19923;SDS011;10124;53.068;18.224;2023-01-30T18:01:57;14.43;;;6.30;;
19923;SDS011;10124;53.068;18.224;2023-01-30T18:04:26;12.60;;;6.07;;